sensor_id;sensor_type;location;lat;lon;timestamp;temperature;humidity
20862;DHT22;10591;52.532;13.348;2022-12-13T00:00:26;-0.93;76.55
20862;DHT22;10591;52.532;13.348;2022-12-13T00:02:59;-1.05;76.72
20862;DHT22;10591;52.532;13.348;2022-12-13T00:05:30;-1.15;77.41
20862;DHT22;10591;52.532;13.348;2022-12-13T00:08:01;-1.02;77.68
20862;DHT22;10591;52.532;13.348;2022-12-13T00:10:32;-1.04;77.46
20862;DHT22;10591;52.532;13.348;2022-12-13T00:13:04;-1.12;77.75
20862;DHT22;10591;52.532;13.348;2022-12-13T00:15:35;-1.13;77.51
20862;DHT22;10591;52.532;13.348;2022-12-13T00:18:06;-1.03;77.32
20862;DHT22;10591;52.532;13.348;2022-12-13T00:20:39;-1.10;77.61
20862;DHT22;10591;52.532;13.348;2022-12-13T00:23:10;-0.80;77.49
20862;DHT22;10591;52.532;13.348;2022-12-13T00:25:40;-0.89;77.18
20862;DHT22;10591;52.532;13.348;2022-12-13T00:28:11;-1.00;77.73
20862;DHT22;10591;52.532;13.348;2022-12-13T00:30:42;-1.02;77.72
20862;DHT22;10591;52.532;13.348;2022-12-13T00:33:13;-1.02;77.61
20862;DHT22;10591;52.532;13.348;2022-12-13T00:35:43;-1.14;77.22
20862;DHT22;10591;52.532;13.348;2022-12-13T00:38:14;-1.11;77.51
20862;DHT22;10591;52.532;13.348;2022-12-13T00:40:45;-1.16;77.58
20862;DHT22;10591;52.532;13.348;2022-12-13T00:43:16;-1.08;77.52
20862;DHT22;10591;52.532;13.348;2022-12-13T00:45:48;-1.10;77.40
20862;DHT22;10591;52.532;13.348;2022-12-13T00:48:19;-0.96;76.67
20862;DHT22;10591;52.532;13.348;2022-12-13T00:50:50;-1.06;77.05
20862;DHT22;10591;52.532;13.348;2022-12-13T00:53:21;-1.06;76.96
20862;DHT22;10591;52.532;13.348;2022-12-13T00:55:53;-1.12;77.23
20862;DHT22;10591;52.532;13.348;2022-12-13T00:58:23;-1.08;77.26
20862;DHT22;10591;52.532;13.348;2022-12-13T01:01:07;-1.08;77.20
20862;DHT22;10591;52.532;13.348;2022-12-13T01:03:33;-1.19;77.07
20862;DHT22;10591;52.532;13.348;2022-12-13T01:06:14;-1.00;77.02
20862;DHT22;10591;52.532;13.348;2022-12-13T01:08:42;-1.10;76.73
20862;DHT22;10591;52.532;13.348;2022-12-13T01:11:14;-1.00;76.32
20862;DHT22;10591;52.532;13.348;2022-12-13T01:13:46;-1.12;76.28
20862;DHT22;10591;52.532;13.348;2022-12-13T01:16:16;-0.89;75.53
20862;DHT22;10591;52.532;13.348;2022-12-13T01:18:47;-1.00;75.70
20862;DHT22;10591;52.532;13.348;2022-12-13T01:21:18;-1.10;75.46
20862;DHT22;10591;52.532;13.348;2022-12-13T01:23:52;-1.08;75.18
20862;DHT22;10591;52.532;13.348;2022-12-13T01:26:23;-1.04;75.57
20862;DHT22;10591;52.532;13.348;2022-12-13T01:28:54;-1.06;75.42
20862;DHT22;10591;52.532;13.348;2022-12-13T01:31:25;-1.00;75.39
20862;DHT22;10591;52.532;13.348;2022-12-13T01:33:55;-1.13;75.79
20862;DHT22;10591;52.532;13.348;2022-12-13T01:36:26;-1.12;75.89
20862;DHT22;10591;52.532;13.348;2022-12-13T01:38:57;-1.13;75.80
20862;DHT22;10591;52.532;13.348;2022-12-13T01:41:29;-1.07;75.66
20862;DHT22;10591;52.532;13.348;2022-12-13T01:44:03;-1.02;75.64
20862;DHT22;10591;52.532;13.348;2022-12-13T01:46:36;-0.92;75.28
20862;DHT22;10591;52.532;13.348;2022-12-13T01:49:14;-1.10;75.90
20862;DHT22;10591;52.532;13.348;2022-12-13T01:51:58;-0.90;75.94
20862;DHT22;10591;52.532;13.348;2022-12-13T01:54:30;-0.94;76.17
20862;DHT22;10591;52.532;13.348;2022-12-13T01:57:06;-0.80;75.89
20862;DHT22;10591;52.532;13.348;2022-12-13T01:59:38;-0.86;76.19
20862;DHT22;10591;52.532;13.348;2022-12-13T02:02:12;-0.76;75.92
20862;DHT22;10591;52.532;13.348;2022-12-13T02:05:07;-0.72;75.83
20862;DHT22;10591;52.532;13.348;2022-12-13T02:07:39;-0.90;76.47
20862;DHT22;10591;52.532;13.348;2022-12-13T02:10:11;-0.87;76.48
20862;DHT22;10591;52.532;13.348;2022-12-13T02:12:42;-0.73;76.65
20862;DHT22;10591;52.532;13.348;2022-12-13T02:15:15;-0.89;76.87
20862;DHT22;10591;52.532;13.348;2022-12-13T02:23:40;-0.92;76.99
20862;DHT22;10591;52.532;13.348;2022-12-13T02:32:33;-1.04;77.90
20862;DHT22;10591;52.532;13.348;2022-12-13T02:35:06;-0.80;77.89
20862;DHT22;10591;52.532;13.348;2022-12-13T02:40:30;-1.10;78.50
20862;DHT22;10591;52.532;13.348;2022-12-13T02:45:48;-0.87;77.88
20862;DHT22;10591;52.532;13.348;2022-12-13T02:48:22;-0.98;77.99
20862;DHT22;10591;52.532;13.348;2022-12-13T02:50:53;-0.84;78.00
20862;DHT22;10591;52.532;13.348;2022-12-13T02:53:25;-1.03;78.34
20862;DHT22;10591;52.532;13.348;2022-12-13T02:55:57;-1.12;78.69
20862;DHT22;10591;52.532;13.348;2022-12-13T02:58:32;-1.05;78.66
20862;DHT22;10591;52.532;13.348;2022-12-13T03:01:12;-1.04;78.57
20862;DHT22;10591;52.532;13.348;2022-12-13T03:03:46;-1.00;78.48
20862;DHT22;10591;52.532;13.348;2022-12-13T03:09:30;-0.92;78.52
20862;DHT22;10591;52.532;13.348;2022-12-13T03:15:29;-1.12;78.78
20862;DHT22;10591;52.532;13.348;2022-12-13T03:18:07;-1.00;78.60
20862;DHT22;10591;52.532;13.348;2022-12-13T03:20:44;-1.02;78.81
20862;DHT22;10591;52.532;13.348;2022-12-13T03:23:12;-0.95;78.37
20862;DHT22;10591;52.532;13.348;2022-12-13T03:25:43;-1.06;78.61
20862;DHT22;10591;52.532;13.348;2022-12-13T03:28:15;-1.12;79.04
20862;DHT22;10591;52.532;13.348;2022-12-13T03:30:46;-0.94;78.60
20862;DHT22;10591;52.532;13.348;2022-12-13T03:33:16;-1.08;78.98
20862;DHT22;10591;52.532;13.348;2022-12-13T03:35:47;-1.21;79.09
20862;DHT22;10591;52.532;13.348;2022-12-13T03:38:18;-1.18;78.65
20862;DHT22;10591;52.532;13.348;2022-12-13T03:40:59;-1.10;79.04
20862;DHT22;10591;52.532;13.348;2022-12-13T03:43:30;-1.07;78.63
20862;DHT22;10591;52.532;13.348;2022-12-13T03:46:01;-1.04;78.78
20862;DHT22;10591;52.532;13.348;2022-12-13T03:48:32;-0.98;78.29
20862;DHT22;10591;52.532;13.348;2022-12-13T03:51:03;-0.96;78.49
20862;DHT22;10591;52.532;13.348;2022-12-13T03:53:34;-0.94;77.60
20862;DHT22;10591;52.532;13.348;2022-12-13T03:56:05;-0.70;77.44
20862;DHT22;10591;52.532;13.348;2022-12-13T03:58:36;-1.08;77.74
20862;DHT22;10591;52.532;13.348;2022-12-13T04:01:09;-1.08;77.88
20862;DHT22;10591;52.532;13.348;2022-12-13T04:03:42;-1.03;78.03
20862;DHT22;10591;52.532;13.348;2022-12-13T04:06:14;-1.00;77.87
20862;DHT22;10591;52.532;13.348;2022-12-13T04:08:47;-1.00;77.73
20862;DHT22;10591;52.532;13.348;2022-12-13T04:11:19;-0.92;77.30
20862;DHT22;10591;52.532;13.348;2022-12-13T04:14:12;-0.93;77.32
20862;DHT22;10591;52.532;13.348;2022-12-13T04:16:45;-0.94;77.41
20862;DHT22;10591;52.532;13.348;2022-12-13T04:19:16;-0.90;77.14
20862;DHT22;10591;52.532;13.348;2022-12-13T04:21:48;-0.85;76.93
20862;DHT22;10591;52.532;13.348;2022-12-13T04:24:25;-0.88;76.98
20862;DHT22;10591;52.532;13.348;2022-12-13T04:26:53;-0.74;76.65
20862;DHT22;10591;52.532;13.348;2022-12-13T04:29:24;-0.74;76.31
20862;DHT22;10591;52.532;13.348;2022-12-13T04:31:58;-0.71;76.50
20862;DHT22;10591;52.532;13.348;2022-12-13T04:34:29;-0.80;76.68
20862;DHT22;10591;52.532;13.348;2022-12-13T04:37:01;-0.74;76.45
20862;DHT22;10591;52.532;13.348;2022-12-13T04:39:32;-0.74;76.63
20862;DHT22;10591;52.532;13.348;2022-12-13T04:42:05;-0.70;76.61
20862;DHT22;10591;52.532;13.348;2022-12-13T04:44:36;-0.73;77.10
20862;DHT22;10591;52.532;13.348;2022-12-13T04:47:08;-0.57;76.08
20862;DHT22;10591;52.532;13.348;2022-12-13T04:49:39;-0.73;75.73
20862;DHT22;10591;52.532;13.348;2022-12-13T04:52:09;-0.64;76.09
20862;DHT22;10591;52.532;13.348;2022-12-13T04:54:42;-0.72;75.59
20862;DHT22;10591;52.532;13.348;2022-12-13T04:57:13;-0.76;75.99
20862;DHT22;10591;52.532;13.348;2022-12-13T04:59:44;-0.74;75.49
20862;DHT22;10591;52.532;13.348;2022-12-13T05:02:15;-0.75;75.92
20862;DHT22;10591;52.532;13.348;2022-12-13T05:04:47;-0.78;75.84
20862;DHT22;10591;52.532;13.348;2022-12-13T05:07:20;-0.90;76.25
20862;DHT22;10591;52.532;13.348;2022-12-13T05:09:51;-0.82;76.20
20862;DHT22;10591;52.532;13.348;2022-12-13T05:12:21;-0.88;76.31
20862;DHT22;10591;52.532;13.348;2022-12-13T05:14:53;-0.80;75.77
20862;DHT22;10591;52.532;13.348;2022-12-13T05:17:23;-0.99;76.28
20862;DHT22;10591;52.532;13.348;2022-12-13T05:19:54;-0.89;76.06
20862;DHT22;10591;52.532;13.348;2022-12-13T05:22:25;-1.12;76.44
20862;DHT22;10591;52.532;13.348;2022-12-13T05:24:55;-0.82;76.17
20862;DHT22;10591;52.532;13.348;2022-12-13T05:27:26;-0.93;76.02
20862;DHT22;10591;52.532;13.348;2022-12-13T05:29:56;-0.98;76.35
20862;DHT22;10591;52.532;13.348;2022-12-13T05:32:31;-0.88;76.42
20862;DHT22;10591;52.532;13.348;2022-12-13T05:35:04;-0.83;75.88
20862;DHT22;10591;52.532;13.348;2022-12-13T05:37:35;-0.99;76.23
20862;DHT22;10591;52.532;13.348;2022-12-13T05:40:08;-1.12;76.90
20862;DHT22;10591;52.532;13.348;2022-12-13T05:42:38;-0.93;76.73
20862;DHT22;10591;52.532;13.348;2022-12-13T05:45:09;-1.03;76.99
20862;DHT22;10591;52.532;13.348;2022-12-13T05:47:41;-0.94;76.73
20862;DHT22;10591;52.532;13.348;2022-12-13T05:50:14;-1.01;76.85
20862;DHT22;10591;52.532;13.348;2022-12-13T05:52:45;-0.89;76.42
20862;DHT22;10591;52.532;13.348;2022-12-13T05:55:16;-1.04;77.05
20862;DHT22;10591;52.532;13.348;2022-12-13T05:57:49;-1.18;77.07
20862;DHT22;10591;52.532;13.348;2022-12-13T06:00:20;-1.08;76.88
20862;DHT22;10591;52.532;13.348;2022-12-13T06:02:52;-1.10;76.95
20862;DHT22;10591;52.532;13.348;2022-12-13T06:05:23;-1.00;76.64
20862;DHT22;10591;52.532;13.348;2022-12-13T06:07:54;-0.86;76.38
20862;DHT22;10591;52.532;13.348;2022-12-13T06:10:27;-1.10;76.71
20862;DHT22;10591;52.532;13.348;2022-12-13T06:12:59;-1.02;76.70
20862;DHT22;10591;52.532;13.348;2022-12-13T06:15:32;-0.96;76.65
20862;DHT22;10591;52.532;13.348;2022-12-13T06:18:03;-1.12;76.83
20862;DHT22;10591;52.532;13.348;2022-12-13T06:20:36;-1.03;76.63
20862;DHT22;10591;52.532;13.348;2022-12-13T06:23:07;-0.96;76.65
20862;DHT22;10591;52.532;13.348;2022-12-13T06:25:39;-1.22;76.82
20862;DHT22;10591;52.532;13.348;2022-12-13T06:28:09;-1.12;76.94
20862;DHT22;10591;52.532;13.348;2022-12-13T06:30:40;-1.22;76.87
20862;DHT22;10591;52.532;13.348;2022-12-13T06:33:12;-1.14;77.11
20862;DHT22;10591;52.532;13.348;2022-12-13T06:35:44;-0.84;76.53
20862;DHT22;10591;52.532;13.348;2022-12-13T06:38:16;-1.00;76.83
20862;DHT22;10591;52.532;13.348;2022-12-13T06:40:51;-0.97;76.66
20862;DHT22;10591;52.532;13.348;2022-12-13T06:43:21;-1.03;76.92
20862;DHT22;10591;52.532;13.348;2022-12-13T06:45:51;-0.80;76.54
20862;DHT22;10591;52.532;13.348;2022-12-13T06:48:22;-0.88;76.72
20862;DHT22;10591;52.532;13.348;2022-12-13T06:50:52;-0.96;77.24
20862;DHT22;10591;52.532;13.348;2022-12-13T06:53:23;-1.10;76.94
20862;DHT22;10591;52.532;13.348;2022-12-13T06:55:55;-1.29;77.85
20862;DHT22;10591;52.532;13.348;2022-12-13T06:58:29;-1.31;77.76
20862;DHT22;10591;52.532;13.348;2022-12-13T07:01:03;-1.26;78.12
20862;DHT22;10591;52.532;13.348;2022-12-13T07:03:37;-1.41;78.46
20862;DHT22;10591;52.532;13.348;2022-12-13T07:06:17;-1.17;78.26
20862;DHT22;10591;52.532;13.348;2022-12-13T07:08:51;-1.22;78.39
20862;DHT22;10591;52.532;13.348;2022-12-13T07:11:23;-1.34;78.64
20862;DHT22;10591;52.532;13.348;2022-12-13T07:13:57;-1.28;78.44
20862;DHT22;10591;52.532;13.348;2022-12-13T07:16:28;-1.30;78.72
20862;DHT22;10591;52.532;13.348;2022-12-13T07:19:02;-1.34;78.97
20862;DHT22;10591;52.532;13.348;2022-12-13T07:21:34;-1.20;78.76
20862;DHT22;10591;52.532;13.348;2022-12-13T07:24:07;-1.36;79.12
20862;DHT22;10591;52.532;13.348;2022-12-13T07:26:37;-1.46;79.47
20862;DHT22;10591;52.532;13.348;2022-12-13T07:29:09;-1.52;79.85
20862;DHT22;10591;52.532;13.348;2022-12-13T07:31:43;-1.47;79.81
20862;DHT22;10591;52.532;13.348;2022-12-13T07:34:15;-1.44;79.52
20862;DHT22;10591;52.532;13.348;2022-12-13T07:36:50;-1.46;79.54
20862;DHT22;10591;52.532;13.348;2022-12-13T07:39:25;-1.52;80.06
20862;DHT22;10591;52.532;13.348;2022-12-13T07:41:57;-1.51;79.85
20862;DHT22;10591;52.532;13.348;2022-12-13T07:44:29;-1.32;79.57
20862;DHT22;10591;52.532;13.348;2022-12-13T07:47:00;-1.31;79.74
20862;DHT22;10591;52.532;13.348;2022-12-13T07:49:31;-1.38;80.05
20862;DHT22;10591;52.532;13.348;2022-12-13T07:52:02;-1.20;79.49
20862;DHT22;10591;52.532;13.348;2022-12-13T07:54:33;-1.24;79.63
20862;DHT22;10591;52.532;13.348;2022-12-13T07:57:05;-1.18;79.60
20862;DHT22;10591;52.532;13.348;2022-12-13T07:59:35;-1.22;79.50
20862;DHT22;10591;52.532;13.348;2022-12-13T08:02:08;-1.22;79.76
20862;DHT22;10591;52.532;13.348;2022-12-13T08:04:41;-0.94;79.36
20862;DHT22;10591;52.532;13.348;2022-12-13T08:07:12;-1.10;79.58
20862;DHT22;10591;52.532;13.348;2022-12-13T08:09:43;-0.98;79.21
20862;DHT22;10591;52.532;13.348;2022-12-13T08:12:16;-1.08;79.32
20862;DHT22;10591;52.532;13.348;2022-12-13T08:14:48;-1.04;79.13
20862;DHT22;10591;52.532;13.348;2022-12-13T08:17:23;-1.20;79.32
20862;DHT22;10591;52.532;13.348;2022-12-13T08:19:53;-1.28;79.40
20862;DHT22;10591;52.532;13.348;2022-12-13T08:22:25;-1.04;79.31
20862;DHT22;10591;52.532;13.348;2022-12-13T08:24:57;-1.16;78.93
20862;DHT22;10591;52.532;13.348;2022-12-13T08:27:29;-1.28;79.31
20862;DHT22;10591;52.532;13.348;2022-12-13T08:30:01;-1.17;79.19
20862;DHT22;10591;52.532;13.348;2022-12-13T08:32:32;-1.18;78.21
20862;DHT22;10591;52.532;13.348;2022-12-13T08:35:04;-1.16;78.51
20862;DHT22;10591;52.532;13.348;2022-12-13T08:37:38;-1.22;79.16
20862;DHT22;10591;52.532;13.348;2022-12-13T08:40:10;-1.14;78.75
20862;DHT22;10591;52.532;13.348;2022-12-13T08:42:41;-1.24;78.85
20862;DHT22;10591;52.532;13.348;2022-12-13T08:45:13;-1.39;79.04
20862;DHT22;10591;52.532;13.348;2022-12-13T08:47:44;-1.10;78.95
20862;DHT22;10591;52.532;13.348;2022-12-13T08:50:15;-1.01;78.83
20862;DHT22;10591;52.532;13.348;2022-12-13T08:52:46;-1.02;78.43
20862;DHT22;10591;52.532;13.348;2022-12-13T08:55:17;-0.99;78.20
20862;DHT22;10591;52.532;13.348;2022-12-13T08:57:49;-1.00;78.13
20862;DHT22;10591;52.532;13.348;2022-12-13T09:00:20;-1.05;78.61
20862;DHT22;10591;52.532;13.348;2022-12-13T09:02:50;-0.88;78.09
20862;DHT22;10591;52.532;13.348;2022-12-13T09:05:22;-0.76;77.92
20862;DHT22;10591;52.532;13.348;2022-12-13T09:07:55;-0.83;77.90
20862;DHT22;10591;52.532;13.348;2022-12-13T09:10:29;-0.58;77.04
20862;DHT22;10591;52.532;13.348;2022-12-13T09:13:01;-0.54;76.13
20862;DHT22;10591;52.532;13.348;2022-12-13T09:15:37;-0.62;76.51
20862;DHT22;10591;52.532;13.348;2022-12-13T09:18:10;-0.60;76.96
20862;DHT22;10591;52.532;13.348;2022-12-13T09:20:42;-0.46;76.71
20862;DHT22;10591;52.532;13.348;2022-12-13T09:23:14;-0.47;76.44
20862;DHT22;10591;52.532;13.348;2022-12-13T09:25:57;-0.66;76.54
20862;DHT22;10591;52.532;13.348;2022-12-13T09:28:33;-0.70;76.43
20862;DHT22;10591;52.532;13.348;2022-12-13T09:31:10;-0.64;76.67
20862;DHT22;10591;52.532;13.348;2022-12-13T09:33:42;-0.80;77.23
20862;DHT22;10591;52.532;13.348;2022-12-13T09:36:18;-0.79;77.02
20862;DHT22;10591;52.532;13.348;2022-12-13T09:38:51;-0.84;77.10
20862;DHT22;10591;52.532;13.348;2022-12-13T09:41:26;-0.78;77.68
20862;DHT22;10591;52.532;13.348;2022-12-13T09:44:03;-0.69;77.51
20862;DHT22;10591;52.532;13.348;2022-12-13T09:46:38;-0.74;77.43
20862;DHT22;10591;52.532;13.348;2022-12-13T09:49:16;-0.72;77.50
20862;DHT22;10591;52.532;13.348;2022-12-13T09:51:53;-0.62;77.24
20862;DHT22;10591;52.532;13.348;2022-12-13T09:54:28;-0.53;77.17
20862;DHT22;10591;52.532;13.348;2022-12-13T09:56:59;-0.52;76.59
20862;DHT22;10591;52.532;13.348;2022-12-13T09:59:33;-0.66;77.42
20862;DHT22;10591;52.532;13.348;2022-12-13T10:02:16;-0.46;76.85
20862;DHT22;10591;52.532;13.348;2022-12-13T10:04:48;-0.50;76.48
20862;DHT22;10591;52.532;13.348;2022-12-13T10:07:22;-0.44;76.83
20862;DHT22;10591;52.532;13.348;2022-12-13T10:09:58;-0.64;76.86
20862;DHT22;10591;52.532;13.348;2022-12-13T10:12:29;-0.44;76.71
20862;DHT22;10591;52.532;13.348;2022-12-13T10:15:01;-0.50;76.58
20862;DHT22;10591;52.532;13.348;2022-12-13T10:17:36;-0.58;76.46
20862;DHT22;10591;52.532;13.348;2022-12-13T10:20:11;-0.50;76.53
20862;DHT22;10591;52.532;13.348;2022-12-13T10:22:40;-0.54;76.93
20862;DHT22;10591;52.532;13.348;2022-12-13T10:25:13;-0.44;75.94
20862;DHT22;10591;52.532;13.348;2022-12-13T10:27:48;-0.54;76.24
20862;DHT22;10591;52.532;13.348;2022-12-13T10:30:22;-0.66;76.28
20862;DHT22;10591;52.532;13.348;2022-12-13T10:33:04;-0.54;76.41
20862;DHT22;10591;52.532;13.348;2022-12-13T10:35:37;-0.56;76.01
20862;DHT22;10591;52.532;13.348;2022-12-13T10:40:57;-0.63;75.95
20862;DHT22;10591;52.532;13.348;2022-12-13T10:43:30;-0.42;75.44
20862;DHT22;10591;52.532;13.348;2022-12-13T10:46:13;-0.52;75.66
20862;DHT22;10591;52.532;13.348;2022-12-13T10:48:51;-0.54;75.04
20862;DHT22;10591;52.532;13.348;2022-12-13T10:51:26;-0.54;75.07
20862;DHT22;10591;52.532;13.348;2022-12-13T10:54:00;-0.60;74.96
20862;DHT22;10591;52.532;13.348;2022-12-13T10:56:46;-0.44;74.68
20862;DHT22;10591;52.532;13.348;2022-12-13T10:59:25;-0.24;76.70
20862;DHT22;10591;52.532;13.348;2022-12-13T11:01:56;0.13;78.19
20862;DHT22;10591;52.532;13.348;2022-12-13T11:04:37;-0.06;74.64
20862;DHT22;10591;52.532;13.348;2022-12-13T11:07:22;-0.56;74.46
20862;DHT22;10591;52.532;13.348;2022-12-13T11:09:57;-0.34;74.28
20862;DHT22;10591;52.532;13.348;2022-12-13T11:12:34;-0.26;74.40
20862;DHT22;10591;52.532;13.348;2022-12-13T11:15:22;-0.12;74.03
20862;DHT22;10591;52.532;13.348;2022-12-13T11:17:57;-0.10;72.85
20862;DHT22;10591;52.532;13.348;2022-12-13T11:20:32;-0.24;73.20
20862;DHT22;10591;52.532;13.348;2022-12-13T11:26:09;-0.12;73.22
20862;DHT22;10591;52.532;13.348;2022-12-13T11:31:34;-0.10;72.95
20862;DHT22;10591;52.532;13.348;2022-12-13T11:37:40;0.02;73.03
20862;DHT22;10591;52.532;13.348;2022-12-13T11:40:28;-0.20;73.26
20862;DHT22;10591;52.532;13.348;2022-12-13T11:43:24;-0.16;73.16
20862;DHT22;10591;52.532;13.348;2022-12-13T11:45:59;0.06;72.38
20862;DHT22;10591;52.532;13.348;2022-12-13T11:48:43;-0.20;72.88
20862;DHT22;10591;52.532;13.348;2022-12-13T11:51:21;-0.14;73.16
20862;DHT22;10591;52.532;13.348;2022-12-13T11:54:03;-0.24;73.59
20862;DHT22;10591;52.532;13.348;2022-12-13T11:56:34;-0.02;72.84
20862;DHT22;10591;52.532;13.348;2022-12-13T11:59:40;-0.12;72.93
20862;DHT22;10591;52.532;13.348;2022-12-13T12:02:27;-0.04;72.74
20862;DHT22;10591;52.532;13.348;2022-12-13T12:05:01;0.08;72.22
20862;DHT22;10591;52.532;13.348;2022-12-13T12:08:19;0.08;72.40
20862;DHT22;10591;52.532;13.348;2022-12-13T12:12:54;0.13;72.08
20862;DHT22;10591;52.532;13.348;2022-12-13T12:15:28;-0.03;72.20
20862;DHT22;10591;52.532;13.348;2022-12-13T12:18:03;0.08;72.54
20862;DHT22;10591;52.532;13.348;2022-12-13T12:20:52;0.18;71.64
20862;DHT22;10591;52.532;13.348;2022-12-13T12:23:55;0.08;72.02
20862;DHT22;10591;52.532;13.348;2022-12-13T12:26:57;-0.02;72.00
20862;DHT22;10591;52.532;13.348;2022-12-13T12:38:01;0.28;71.45
20862;DHT22;10591;52.532;13.348;2022-12-13T12:40:56;0.12;71.17
20862;DHT22;10591;52.532;13.348;2022-12-13T12:43:35;0.04;70.55
20862;DHT22;10591;52.532;13.348;2022-12-13T12:51:44;0.13;71.06
20862;DHT22;10591;52.532;13.348;2022-12-13T12:57:28;-0.22;71.05
20862;DHT22;10591;52.532;13.348;2022-12-13T13:00:11;-0.27;71.64
20862;DHT22;10591;52.532;13.348;2022-12-13T13:02:59;-0.44;72.81
20862;DHT22;10591;52.532;13.348;2022-12-13T13:05:37;-0.37;72.35
20862;DHT22;10591;52.532;13.348;2022-12-13T13:08:14;-0.19;72.21
20862;DHT22;10591;52.532;13.348;2022-12-13T13:10:46;-0.35;72.63
20862;DHT22;10591;52.532;13.348;2022-12-13T13:16:33;-0.20;72.11
20862;DHT22;10591;52.532;13.348;2022-12-13T13:21:58;-0.08;72.18
20862;DHT22;10591;52.532;13.348;2022-12-13T13:24:32;0.18;71.68
20862;DHT22;10591;52.532;13.348;2022-12-13T13:29:42;0.04;71.71
20862;DHT22;10591;52.532;13.348;2022-12-13T13:34:51;0.16;71.71
20862;DHT22;10591;52.532;13.348;2022-12-13T13:37:46;0.26;71.77
20862;DHT22;10591;52.532;13.348;2022-12-13T13:40:25;0.02;71.91
20862;DHT22;10591;52.532;13.348;2022-12-13T13:45:52;-0.03;71.44
20862;DHT22;10591;52.532;13.348;2022-12-13T13:48:48;-0.02;71.34
20862;DHT22;10591;52.532;13.348;2022-12-13T14:00:21;0.14;71.68
20862;DHT22;10591;52.532;13.348;2022-12-13T14:06:14;0.16;71.48
20862;DHT22;10591;52.532;13.348;2022-12-13T14:09:11;-0.06;71.69
20862;DHT22;10591;52.532;13.348;2022-12-13T14:14:51;-0.11;72.68
20862;DHT22;10591;52.532;13.348;2022-12-13T14:31:17;0.04;72.96
20862;DHT22;10591;52.532;13.348;2022-12-13T14:33:52;-0.04;72.32
20862;DHT22;10591;52.532;13.348;2022-12-13T14:36:30;-0.06;72.44
20862;DHT22;10591;52.532;13.348;2022-12-13T14:39:14;-0.04;72.04
20862;DHT22;10591;52.532;13.348;2022-12-13T14:41:53;0.03;71.46
20862;DHT22;10591;52.532;13.348;2022-12-13T14:44:28;-0.04;71.37
20862;DHT22;10591;52.532;13.348;2022-12-13T14:47:04;-0.14;72.25
20862;DHT22;10591;52.532;13.348;2022-12-13T14:49:41;-0.26;73.02
20862;DHT22;10591;52.532;13.348;2022-12-13T14:52:27;-0.24;73.49
20862;DHT22;10591;52.532;13.348;2022-12-13T14:55:00;-0.34;73.77
20862;DHT22;10591;52.532;13.348;2022-12-13T14:57:33;-0.24;73.74
20862;DHT22;10591;52.532;13.348;2022-12-13T15:00:25;0.00;73.35
20862;DHT22;10591;52.532;13.348;2022-12-13T15:03:00;-0.18;72.94
20862;DHT22;10591;52.532;13.348;2022-12-13T15:05:32;-0.26;73.47
20862;DHT22;10591;52.532;13.348;2022-12-13T15:08:08;-0.19;73.31
20862;DHT22;10591;52.532;13.348;2022-12-13T15:10:42;-0.24;73.54
20862;DHT22;10591;52.532;13.348;2022-12-13T15:15:58;-0.12;72.75
20862;DHT22;10591;52.532;13.348;2022-12-13T15:18:33;-0.21;72.58
20862;DHT22;10591;52.532;13.348;2022-12-13T15:21:19;-0.34;73.13
20862;DHT22;10591;52.532;13.348;2022-12-13T15:23:51;-0.42;73.43
20862;DHT22;10591;52.532;13.348;2022-12-13T15:26:24;-0.30;73.28
20862;DHT22;10591;52.532;13.348;2022-12-13T15:28:59;-0.25;73.44
20862;DHT22;10591;52.532;13.348;2022-12-13T15:31:33;-0.43;74.44
20862;DHT22;10591;52.532;13.348;2022-12-13T15:34:22;-0.30;74.54
20862;DHT22;10591;52.532;13.348;2022-12-13T15:37:06;-0.38;74.89
20862;DHT22;10591;52.532;13.348;2022-12-13T15:39:40;-0.23;73.97
20862;DHT22;10591;52.532;13.348;2022-12-13T15:42:20;-0.24;74.11
20862;DHT22;10591;52.532;13.348;2022-12-13T15:44:55;-0.20;74.19
20862;DHT22;10591;52.532;13.348;2022-12-13T15:47:25;-0.20;74.24
20862;DHT22;10591;52.532;13.348;2022-12-13T15:50:05;-0.32;73.97
20862;DHT22;10591;52.532;13.348;2022-12-13T15:52:39;-0.27;73.59
20862;DHT22;10591;52.532;13.348;2022-12-13T15:57:55;-0.44;74.49
20862;DHT22;10591;52.532;13.348;2022-12-13T16:00:34;-0.64;74.59
20862;DHT22;10591;52.532;13.348;2022-12-13T16:03:11;-0.72;74.89
20862;DHT22;10591;52.532;13.348;2022-12-13T16:05:54;-0.58;74.94
20862;DHT22;10591;52.532;13.348;2022-12-13T16:08:34;-0.74;75.47
20862;DHT22;10591;52.532;13.348;2022-12-13T16:11:07;-0.88;76.33
20862;DHT22;10591;52.532;13.348;2022-12-13T16:13:39;-0.81;75.96
20862;DHT22;10591;52.532;13.348;2022-12-13T16:16:25;-0.76;75.10
20862;DHT22;10591;52.532;13.348;2022-12-13T16:18:58;-0.74;74.86
20862;DHT22;10591;52.532;13.348;2022-12-13T16:21:32;-0.78;75.12
20862;DHT22;10591;52.532;13.348;2022-12-13T16:24:03;-1.03;75.67
20862;DHT22;10591;52.532;13.348;2022-12-13T16:26:34;-0.90;76.08
20862;DHT22;10591;52.532;13.348;2022-12-13T16:29:08;-0.94;75.93
20862;DHT22;10591;52.532;13.348;2022-12-13T16:31:40;-0.90;75.89
20862;DHT22;10591;52.532;13.348;2022-12-13T16:34:14;-0.94;75.79
20862;DHT22;10591;52.532;13.348;2022-12-13T16:36:49;-0.92;75.96
20862;DHT22;10591;52.532;13.348;2022-12-13T16:39:20;-1.14;76.73
20862;DHT22;10591;52.532;13.348;2022-12-13T16:41:51;-1.26;76.97
20862;DHT22;10591;52.532;13.348;2022-12-13T16:44:33;-1.13;77.13
20862;DHT22;10591;52.532;13.348;2022-12-13T16:47:07;-1.34;77.25
20862;DHT22;10591;52.532;13.348;2022-12-13T16:49:42;-1.40;77.64
20862;DHT22;10591;52.532;13.348;2022-12-13T16:52:12;-1.24;77.34
20862;DHT22;10591;52.532;13.348;2022-12-13T16:54:43;-1.38;77.60
20862;DHT22;10591;52.532;13.348;2022-12-13T16:57:14;-1.44;77.68
20862;DHT22;10591;52.532;13.348;2022-12-13T16:59:45;-1.49;77.86
20862;DHT22;10591;52.532;13.348;2022-12-13T17:02:18;-1.48;77.71
20862;DHT22;10591;52.532;13.348;2022-12-13T17:04:49;-1.54;77.99
20862;DHT22;10591;52.532;13.348;2022-12-13T17:07:21;-1.58;78.33
20862;DHT22;10591;52.532;13.348;2022-12-13T17:09:53;-1.52;78.27
20862;DHT22;10591;52.532;13.348;2022-12-13T17:12:25;-1.66;78.52
20862;DHT22;10591;52.532;13.348;2022-12-13T17:14:55;-1.62;78.34
20862;DHT22;10591;52.532;13.348;2022-12-13T17:17:26;-1.73;78.13
20862;DHT22;10591;52.532;13.348;2022-12-13T17:19:57;-1.58;78.21
20862;DHT22;10591;52.532;13.348;2022-12-13T17:22:31;-1.70;78.30
20862;DHT22;10591;52.532;13.348;2022-12-13T17:25:04;-1.79;78.51
20862;DHT22;10591;52.532;13.348;2022-12-13T17:27:38;-1.84;78.57
20862;DHT22;10591;52.532;13.348;2022-12-13T17:30:12;-1.80;78.49
20862;DHT22;10591;52.532;13.348;2022-12-13T17:32:44;-1.80;78.35
20862;DHT22;10591;52.532;13.348;2022-12-13T17:35:17;-1.92;78.56
20862;DHT22;10591;52.532;13.348;2022-12-13T17:37:51;-1.84;78.60
20862;DHT22;10591;52.532;13.348;2022-12-13T17:40:21;-1.88;78.47
20862;DHT22;10591;52.532;13.348;2022-12-13T17:42:52;-1.86;79.08
20862;DHT22;10591;52.532;13.348;2022-12-13T17:45:25;-1.95;78.92